sensor_id;sensor_type;location;lat;lon;timestamp;P1;durP1;ratioP1;P2;durP2;ratioP2
17177;SDS011;8704;52.006;4.374;2022-09-09T00:01:46;11.52;;;7.35;;
17177;SDS011;8704;52.006;4.374;2022-09-09T00:04:21;10.93;;;7.40;;
17177;SDS011;8704;52.006;4.374;2022-09-09T00:07:04;10.55;;;7.18;;
17177;SDS011;8704;52.006;4.374;2022-09-09T00:09:43;10.15;;;6.70;;
17177;SDS011;8704;52.006;4.374;2022-09-09T00:12:15;10.60;;;7.70;;
17177;SDS011;8704;52.006;4.374;2022-09-09T00:14:50;8.90;;;6.30;;
17177;SDS011;8704;52.006;4.374;2022-09-09T00:19:56;9.00;;;6.10;;
17177;SDS011;8704;52.006;4.374;2022-09-09T00:22:30;12.38;;;7.35;;
17177;SDS011;8704;52.006;4.374;2022-09-09T00:25:03;12.75;;;7.28;;
17177;SDS011;8704;52.006;4.374;2022-09-09T00:27:38;8.82;;;5.60;;
17177;SDS011;8704;52.006;4.374;2022-09-09T00:30:13;8.70;;;6.75;;
17177;SDS011;8704;52.006;4.374;2022-09-09T00:32:45;10.02;;;7.45;;
17177;SDS011;8704;52.006;4.374;2022-09-09T00:35:16;8.68;;;6.78;;
17177;SDS011;8704;52.006;4.374;2022-09-09T00:37:49;8.50;;;6.43;;
17177;SDS011;8704;52.006;4.374;2022-09-09T00:40:24;11.63;;;6.90;;
17177;SDS011;8704;52.006;4.374;2022-09-09T00:46:05;8.80;;;5.75;;
17177;SDS011;8704;52.006;4.374;2022-09-09T00:48:52;12.57;;;7.45;;
17177;SDS011;8704;52.006;4.374;2022-09-09T00:51:29;11.25;;;7.32;;
17177;SDS011;8704;52.006;4.374;2022-09-09T00:54:08;14.07;;;7.63;;
17177;SDS011;8704;52.006;4.374;2022-09-09T00:56:47;12.20;;;7.25;;
17177;SDS011;8704;52.006;4.374;2022-09-09T00:59:26;13.00;;;7.90;;
17177;SDS011;8704;52.006;4.374;2022-09-09T01:02:02;13.43;;;8.48;;
17177;SDS011;8704;52.006;4.374;2022-09-09T01:04:36;12.52;;;9.05;;
17177;SDS011;8704;52.006;4.374;2022-09-09T01:07:07;15.48;;;8.23;;
17177;SDS011;8704;52.006;4.374;2022-09-09T01:09:46;14.30;;;9.75;;
17177;SDS011;8704;52.006;4.374;2022-09-09T01:12:27;12.48;;;8.73;;
17177;SDS011;8704;52.006;4.374;2022-09-09T01:15:03;11.38;;;8.02;;
17177;SDS011;8704;52.006;4.374;2022-09-09T01:17:41;13.00;;;7.85;;
17177;SDS011;8704;52.006;4.374;2022-09-09T01:20:18;15.30;;;7.97;;
17177;SDS011;8704;52.006;4.374;2022-09-09T01:22:55;12.75;;;7.45;;
17177;SDS011;8704;52.006;4.374;2022-09-09T01:28:37;13.57;;;7.00;;
17177;SDS011;8704;52.006;4.374;2022-09-09T01:31:06;10.48;;;7.10;;
17177;SDS011;8704;52.006;4.374;2022-09-09T01:36:06;10.20;;;6.60;;
17177;SDS011;8704;52.006;4.374;2022-09-09T01:38:38;9.90;;;7.05;;
17177;SDS011;8704;52.006;4.374;2022-09-09T01:41:08;12.68;;;7.13;;
17177;SDS011;8704;52.006;4.374;2022-09-09T01:43:36;10.02;;;6.88;;
17177;SDS011;8704;52.006;4.374;2022-09-09T01:46:04;11.35;;;6.88;;
17177;SDS011;8704;52.006;4.374;2022-09-09T01:48:33;9.70;;;5.75;;
17177;SDS011;8704;52.006;4.374;2022-09-09T01:51:01;9.20;;;5.85;;
17177;SDS011;8704;52.006;4.374;2022-09-09T01:53:47;10.75;;;5.97;;
17177;SDS011;8704;52.006;4.374;2022-09-09T01:56:21;9.48;;;7.25;;
17177;SDS011;8704;52.006;4.374;2022-09-09T01:59:00;9.68;;;6.57;;
17177;SDS011;8704;52.006;4.374;2022-09-09T02:01:40;9.57;;;5.93;;
17177;SDS011;8704;52.006;4.374;2022-09-09T02:04:20;10.82;;;5.70;;
17177;SDS011;8704;52.006;4.374;2022-09-09T02:06:55;6.25;;;4.85;;
17177;SDS011;8704;52.006;4.374;2022-09-09T02:09:24;8.05;;;4.60;;
17177;SDS011;8704;52.006;4.374;2022-09-09T02:11:55;10.40;;;4.93;;
17177;SDS011;8704;52.006;4.374;2022-09-09T02:14:28;11.68;;;4.70;;
17177;SDS011;8704;52.006;4.374;2022-09-09T02:17:03;6.65;;;4.38;;
17177;SDS011;8704;52.006;4.374;2022-09-09T02:19:37;8.20;;;3.97;;
17177;SDS011;8704;52.006;4.374;2022-09-09T02:22:09;7.38;;;4.57;;
17177;SDS011;8704;52.006;4.374;2022-09-09T02:24:39;10.55;;;4.28;;
17177;SDS011;8704;52.006;4.374;2022-09-09T02:27:09;7.80;;;4.57;;
17177;SDS011;8704;52.006;4.374;2022-09-09T02:29:40;7.47;;;4.22;;
17177;SDS011;8704;52.006;4.374;2022-09-09T02:32:11;9.63;;;4.88;;
17177;SDS011;8704;52.006;4.374;2022-09-09T02:34:43;10.07;;;4.85;;
17177;SDS011;8704;52.006;4.374;2022-09-09T02:37:12;11.23;;;4.03;;
17177;SDS011;8704;52.006;4.374;2022-09-09T02:39:44;7.43;;;4.20;;
17177;SDS011;8704;52.006;4.374;2022-09-09T02:42:14;8.50;;;4.25;;
17177;SDS011;8704;52.006;4.374;2022-09-09T02:44:42;10.57;;;4.40;;
17177;SDS011;8704;52.006;4.374;2022-09-09T02:47:16;8.63;;;4.15;;
17177;SDS011;8704;52.006;4.374;2022-09-09T02:49:57;7.65;;;3.55;;
17177;SDS011;8704;52.006;4.374;2022-09-09T02:52:38;7.43;;;3.28;;
17177;SDS011;8704;52.006;4.374;2022-09-09T02:55:14;7.07;;;3.50;;
17177;SDS011;8704;52.006;4.374;2022-09-09T02:57:49;7.20;;;3.70;;
17177;SDS011;8704;52.006;4.374;2022-09-09T03:00:22;11.20;;;3.78;;
17177;SDS011;8704;52.006;4.374;2022-09-09T03:02:51;6.45;;;2.90;;
17177;SDS011;8704;52.006;4.374;2022-09-09T03:05:20;5.57;;;3.00;;
17177;SDS011;8704;52.006;4.374;2022-09-09T03:07:48;8.07;;;3.35;;
17177;SDS011;8704;52.006;4.374;2022-09-09T03:10:16;8.65;;;3.60;;
17177;SDS011;8704;52.006;4.374;2022-09-09T03:12:44;8.57;;;3.65;;
17177;SDS011;8704;52.006;4.374;2022-09-09T03:15:14;9.05;;;3.42;;
17177;SDS011;8704;52.006;4.374;2022-09-09T03:17:42;6.43;;;3.10;;
17177;SDS011;8704;52.006;4.374;2022-09-09T03:20:10;9.05;;;3.70;;
17177;SDS011;8704;52.006;4.374;2022-09-09T03:22:38;7.95;;;3.75;;
17177;SDS011;8704;52.006;4.374;2022-09-09T03:25:06;10.57;;;4.07;;
17177;SDS011;8704;52.006;4.374;2022-09-09T03:27:35;6.80;;;3.65;;
17177;SDS011;8704;52.006;4.374;2022-09-09T03:30:03;11.57;;;3.72;;
17177;SDS011;8704;52.006;4.374;2022-09-09T03:32:33;9.90;;;4.18;;
17177;SDS011;8704;52.006;4.374;2022-09-09T03:35:01;8.05;;;3.65;;
17177;SDS011;8704;52.006;4.374;2022-09-09T03:37:28;10.27;;;3.95;;
17177;SDS011;8704;52.006;4.374;2022-09-09T03:39:57;11.43;;;4.45;;
17177;SDS011;8704;52.006;4.374;2022-09-09T03:42:26;8.63;;;4.13;;
17177;SDS011;8704;52.006;4.374;2022-09-09T03:44:53;6.43;;;3.15;;
17177;SDS011;8704;52.006;4.374;2022-09-09T03:47:23;10.57;;;3.60;;
17177;SDS011;8704;52.006;4.374;2022-09-09T03:49:53;11.27;;;3.53;;
17177;SDS011;8704;52.006;4.374;2022-09-09T03:52:21;11.32;;;3.53;;
17177;SDS011;8704;52.006;4.374;2022-09-09T03:54:51;9.25;;;3.58;;
17177;SDS011;8704;52.006;4.374;2022-09-09T03:57:19;8.88;;;3.53;;
17177;SDS011;8704;52.006;4.374;2022-09-09T03:59:47;8.10;;;3.15;;
17177;SDS011;8704;52.006;4.374;2022-09-09T04:02:15;7.75;;;3.30;;
17177;SDS011;8704;52.006;4.374;2022-09-09T04:04:43;8.98;;;3.35;;
17177;SDS011;8704;52.006;4.374;2022-09-09T04:07:13;8.23;;;3.80;;
17177;SDS011;8704;52.006;4.374;2022-09-09T04:09:40;6.72;;;3.80;;
17177;SDS011;8704;52.006;4.374;2022-09-09T04:12:08;9.32;;;3.50;;
17177;SDS011;8704;52.006;4.374;2022-09-09T04:14:39;7.82;;;4.00;;
17177;SDS011;8704;52.006;4.374;2022-09-09T04:17:07;9.93;;;3.42;;
17177;SDS011;8704;52.006;4.374;2022-09-09T04:19:35;8.70;;;3.78;;
17177;SDS011;8704;52.006;4.374;2022-09-09T04:22:03;9.43;;;4.30;;
17177;SDS011;8704;52.006;4.374;2022-09-09T04:24:32;6.45;;;3.63;;
17177;SDS011;8704;52.006;4.374;2022-09-09T04:27:01;10.57;;;3.38;;
17177;SDS011;8704;52.006;4.374;2022-09-09T04:29:29;5.78;;;3.75;;
17177;SDS011;8704;52.006;4.374;2022-09-09T04:31:57;6.85;;;3.85;;
17177;SDS011;8704;52.006;4.374;2022-09-09T04:34:25;9.43;;;4.20;;
17177;SDS011;8704;52.006;4.374;2022-09-09T04:36:53;8.23;;;4.00;;
17177;SDS011;8704;52.006;4.374;2022-09-09T04:39:21;8.05;;;3.65;;
17177;SDS011;8704;52.006;4.374;2022-09-09T04:41:50;10.75;;;4.25;;
17177;SDS011;8704;52.006;4.374;2022-09-09T04:44:19;10.23;;;4.07;;
17177;SDS011;8704;52.006;4.374;2022-09-09T04:46:47;12.35;;;4.30;;
17177;SDS011;8704;52.006;4.374;2022-09-09T04:49:15;7.30;;;3.63;;
17177;SDS011;8704;52.006;4.374;2022-09-09T04:51:42;9.40;;;3.70;;
17177;SDS011;8704;52.006;4.374;2022-09-09T04:54:10;9.30;;;3.63;;
17177;SDS011;8704;52.006;4.374;2022-09-09T04:56:38;8.90;;;3.92;;
17177;SDS011;8704;52.006;4.374;2022-09-09T04:59:09;10.38;;;3.90;;
17177;SDS011;8704;52.006;4.374;2022-09-09T05:01:37;12.65;;;4.82;;
17177;SDS011;8704;52.006;4.374;2022-09-09T05:04:05;10.00;;;4.22;;
17177;SDS011;8704;52.006;4.374;2022-09-09T05:06:33;7.55;;;4.18;;
17177;SDS011;8704;52.006;4.374;2022-09-09T05:09:02;14.23;;;4.40;;
17177;SDS011;8704;52.006;4.374;2022-09-09T05:11:31;13.48;;;4.97;;
17177;SDS011;8704;52.006;4.374;2022-09-09T05:14:02;11.27;;;4.97;;
17177;SDS011;8704;52.006;4.374;2022-09-09T05:16:32;7.32;;;3.95;;
17177;SDS011;8704;52.006;4.374;2022-09-09T05:19:00;8.73;;;4.50;;
17177;SDS011;8704;52.006;4.374;2022-09-09T05:21:29;8.70;;;5.20;;
17177;SDS011;8704;52.006;4.374;2022-09-09T05:23:57;9.73;;;5.05;;
17177;SDS011;8704;52.006;4.374;2022-09-09T05:26:26;10.43;;;5.47;;
17177;SDS011;8704;52.006;4.374;2022-09-09T05:28:55;12.52;;;5.30;;
17177;SDS011;8704;52.006;4.374;2022-09-09T05:31:25;10.70;;;5.63;;
17177;SDS011;8704;52.006;4.374;2022-09-09T05:33:55;13.23;;;5.45;;
17177;SDS011;8704;52.006;4.374;2022-09-09T05:36:25;11.48;;;5.57;;
17177;SDS011;8704;52.006;4.374;2022-09-09T05:38:53;10.68;;;5.10;;
17177;SDS011;8704;52.006;4.374;2022-09-09T05:41:20;10.68;;;5.32;;
17177;SDS011;8704;52.006;4.374;2022-09-09T05:43:49;10.57;;;5.47;;
17177;SDS011;8704;52.006;4.374;2022-09-09T05:46:18;9.25;;;5.47;;
17177;SDS011;8704;52.006;4.374;2022-09-09T05:48:47;7.75;;;4.60;;
17177;SDS011;8704;52.006;4.374;2022-09-09T05:51:19;12.20;;;5.05;;
17177;SDS011;8704;52.006;4.374;2022-09-09T05:53:48;10.40;;;4.78;;
17177;SDS011;8704;52.006;4.374;2022-09-09T05:56:18;9.65;;;4.72;;
17177;SDS011;8704;52.006;4.374;2022-09-09T05:58:48;11.45;;;4.97;;
17177;SDS011;8704;52.006;4.374;2022-09-09T06:01:17;10.55;;;4.00;;
17177;SDS011;8704;52.006;4.374;2022-09-09T06:03:47;10.10;;;4.25;;
17177;SDS011;8704;52.006;4.374;2022-09-09T06:06:16;8.77;;;4.03;;
17177;SDS011;8704;52.006;4.374;2022-09-09T06:08:48;13.60;;;4.13;;
17177;SDS011;8704;52.006;4.374;2022-09-09T06:11:19;15.30;;;4.57;;
17177;SDS011;8704;52.006;4.374;2022-09-09T06:13:49;8.95;;;4.70;;
17177;SDS011;8704;52.006;4.374;2022-09-09T06:16:20;11.10;;;4.28;;
17177;SDS011;8704;52.006;4.374;2022-09-09T06:18:50;12.48;;;4.82;;
17177;SDS011;8704;52.006;4.374;2022-09-09T06:21:21;11.20;;;4.50;;
17177;SDS011;8704;52.006;4.374;2022-09-09T06:23:50;10.90;;;4.75;;
17177;SDS011;8704;52.006;4.374;2022-09-09T06:26:26;15.63;;;5.15;;
17177;SDS011;8704;52.006;4.374;2022-09-09T06:28:56;14.52;;;4.82;;
17177;SDS011;8704;52.006;4.374;2022-09-09T06:31:26;12.20;;;5.10;;
17177;SDS011;8704;52.006;4.374;2022-09-09T06:33:57;12.52;;;4.95;;
17177;SDS011;8704;52.006;4.374;2022-09-09T06:36:28;9.82;;;4.90;;
17177;SDS011;8704;52.006;4.374;2022-09-09T06:38:57;10.68;;;4.82;;
17177;SDS011;8704;52.006;4.374;2022-09-09T06:41:26;12.20;;;4.50;;
17177;SDS011;8704;52.006;4.374;2022-09-09T06:43:55;10.50;;;5.13;;
17177;SDS011;8704;52.006;4.374;2022-09-09T06:46:24;10.30;;;4.57;;
17177;SDS011;8704;52.006;4.374;2022-09-09T06:48:54;11.73;;;5.38;;
17177;SDS011;8704;52.006;4.374;2022-09-09T06:51:28;10.70;;;4.72;;
17177;SDS011;8704;52.006;4.374;2022-09-09T06:53:57;12.27;;;4.90;;
17177;SDS011;8704;52.006;4.374;2022-09-09T06:56:28;13.20;;;5.28;;
17177;SDS011;8704;52.006;4.374;2022-09-09T06:58:58;12.43;;;5.03;;
17177;SDS011;8704;52.006;4.374;2022-09-09T07:01:31;14.48;;;5.43;;
17177;SDS011;8704;52.006;4.374;2022-09-09T07:04:01;13.90;;;5.05;;
17177;SDS011;8704;52.006;4.374;2022-09-09T07:06:35;11.38;;;4.45;;
17177;SDS011;8704;52.006;4.374;2022-09-09T07:09:05;12.57;;;5.38;;
17177;SDS011;8704;52.006;4.374;2022-09-09T07:11:36;9.52;;;4.55;;
17177;SDS011;8704;52.006;4.374;2022-09-09T07:14:05;10.30;;;5.30;;
17177;SDS011;8704;52.006;4.374;2022-09-09T07:16:34;11.95;;;5.10;;
17177;SDS011;8704;52.006;4.374;2022-09-09T07:19:03;12.93;;;4.80;;
17177;SDS011;8704;52.006;4.374;2022-09-09T07:21:32;11.90;;;5.05;;
17177;SDS011;8704;52.006;4.374;2022-09-09T07:24:02;13.77;;;5.40;;
17177;SDS011;8704;52.006;4.374;2022-09-09T07:26:33;10.23;;;4.45;;
17177;SDS011;8704;52.006;4.374;2022-09-09T07:29:02;12.48;;;5.68;;
17177;SDS011;8704;52.006;4.374;2022-09-09T07:31:30;13.52;;;5.78;;
17177;SDS011;8704;52.006;4.374;2022-09-09T07:34:00;14.45;;;5.38;;
17177;SDS011;8704;52.006;4.374;2022-09-09T07:36:30;13.98;;;5.50;;
17177;SDS011;8704;52.006;4.374;2022-09-09T07:38:59;15.05;;;5.60;;
17177;SDS011;8704;52.006;4.374;2022-09-09T07:41:31;15.05;;;5.70;;
17177;SDS011;8704;52.006;4.374;2022-09-09T07:44:03;14.55;;;5.28;;
17177;SDS011;8704;52.006;4.374;2022-09-09T07:46:34;13.20;;;5.28;;
17177;SDS011;8704;52.006;4.374;2022-09-09T07:49:03;13.95;;;5.35;;
17177;SDS011;8704;52.006;4.374;2022-09-09T07:51:32;12.18;;;4.78;;
17177;SDS011;8704;52.006;4.374;2022-09-09T07:54:05;14.25;;;4.57;;
17177;SDS011;8704;52.006;4.374;2022-09-09T07:56:35;13.75;;;4.97;;
17177;SDS011;8704;52.006;4.374;2022-09-09T07:59:05;15.07;;;4.80;;
17177;SDS011;8704;52.006;4.374;2022-09-09T08:01:34;10.38;;;4.60;;
17177;SDS011;8704;52.006;4.374;2022-09-09T08:04:06;13.93;;;4.53;;
17177;SDS011;8704;52.006;4.374;2022-09-09T08:06:37;10.13;;;4.32;;
17177;SDS011;8704;52.006;4.374;2022-09-09T08:09:07;13.02;;;4.45;;
17177;SDS011;8704;52.006;4.374;2022-09-09T08:11:36;12.60;;;4.68;;
17177;SDS011;8704;52.006;4.374;2022-09-09T08:14:06;15.68;;;4.80;;
17177;SDS011;8704;52.006;4.374;2022-09-09T08:16:36;11.98;;;4.10;;
17177;SDS011;8704;52.006;4.374;2022-09-09T08:19:06;14.32;;;4.70;;
17177;SDS011;8704;52.006;4.374;2022-09-09T08:21:35;14.10;;;4.70;;
17177;SDS011;8704;52.006;4.374;2022-09-09T08:24:04;10.82;;;4.65;;
17177;SDS011;8704;52.006;4.374;2022-09-09T08:26:34;12.35;;;4.38;;
17177;SDS011;8704;52.006;4.374;2022-09-09T08:29:04;11.90;;;4.47;;
17177;SDS011;8704;52.006;4.374;2022-09-09T08:31:34;14.45;;;4.22;;
17177;SDS011;8704;52.006;4.374;2022-09-09T08:34:04;11.55;;;4.40;;
17177;SDS011;8704;52.006;4.374;2022-09-09T08:36:34;11.20;;;3.97;;
17177;SDS011;8704;52.006;4.374;2022-09-09T08:39:04;10.85;;;3.85;;
17177;SDS011;8704;52.006;4.374;2022-09-09T08:41:52;12.90;;;3.70;;
17177;SDS011;8704;52.006;4.374;2022-09-09T08:44:39;11.20;;;3.88;;
17177;SDS011;8704;52.006;4.374;2022-09-09T08:47:18;13.23;;;4.18;;
17177;SDS011;8704;52.006;4.374;2022-09-09T08:50:02;12.10;;;4.10;;
17177;SDS011;8704;52.006;4.374;2022-09-09T08:52:37;10.85;;;3.35;;
17177;SDS011;8704;52.006;4.374;2022-09-09T08:55:21;11.05;;;3.53;;
17177;SDS011;8704;52.006;4.374;2022-09-09T08:57:55;11.93;;;3.67;;
17177;SDS011;8704;52.006;4.374;2022-09-09T09:00:28;12.52;;;3.80;;
17177;SDS011;8704;52.006;4.374;2022-09-09T09:03:03;9.35;;;3.88;;
17177;SDS011;8704;52.006;4.374;2022-09-09T09:05:40;10.85;;;3.90;;
17177;SDS011;8704;52.006;4.374;2022-09-09T09:08:16;11.13;;;3.88;;
17177;SDS011;8704;52.006;4.374;2022-09-09T09:10:53;8.05;;;3.55;;
17177;SDS011;8704;52.006;4.374;2022-09-09T09:13:26;8.98;;;3.95;;
17177;SDS011;8704;52.006;4.374;2022-09-09T09:16:10;12.20;;;4.10;;
17177;SDS011;8704;52.006;4.374;2022-09-09T09:18:44;10.85;;;3.67;;
17177;SDS011;8704;52.006;4.374;2022-09-09T09:21:14;8.75;;;3.60;;
17177;SDS011;8704;52.006;4.374;2022-09-09T09:23:48;10.20;;;3.58;;
17177;SDS011;8704;52.006;4.374;2022-09-09T09:26:23;7.28;;;2.90;;
17177;SDS011;8704;52.006;4.374;2022-09-09T09:28:55;10.95;;;4.30;;
17177;SDS011;8704;52.006;4.374;2022-09-09T09:31:26;9.32;;;3.70;;
17177;SDS011;8704;52.006;4.374;2022-09-09T09:33:54;8.45;;;3.35;;
17177;SDS011;8704;52.006;4.374;2022-09-09T09:36:25;11.75;;;3.35;;
17177;SDS011;8704;52.006;4.374;2022-09-09T09:39:02;7.80;;;2.92;;
17177;SDS011;8704;52.006;4.374;2022-09-09T09:41:51;10.93;;;3.83;;
17177;SDS011;8704;52.006;4.374;2022-09-09T09:44:25;9.25;;;3.60;;
17177;SDS011;8704;52.006;4.374;2022-09-09T09:47:05;8.80;;;3.53;;
17177;SDS011;8704;52.006;4.374;2022-09-09T09:49:34;11.18;;;3.95;;
17177;SDS011;8704;52.006;4.374;2022-09-09T09:52:02;10.80;;;4.10;;
17177;SDS011;8704;52.006;4.374;2022-09-09T09:54:32;12.15;;;4.20;;
17177;SDS011;8704;52.006;4.374;2022-09-09T09:57:08;8.90;;;3.70;;
17177;SDS011;8704;52.006;4.374;2022-09-09T09:59:38;11.90;;;4.40;;
17177;SDS011;8704;52.006;4.374;2022-09-09T10:02:13;12.80;;;4.20;;
17177;SDS011;8704;52.006;4.374;2022-09-09T10:04:43;14.88;;;5.40;;
17177;SDS011;8704;52.006;4.374;2022-09-09T10:07:12;7.70;;;3.95;;
17177;SDS011;8704;52.006;4.374;2022-09-09T10:09:44;11.75;;;4.60;;
17177;SDS011;8704;52.006;4.374;2022-09-09T10:12:16;9.98;;;3.95;;
17177;SDS011;8704;52.006;4.374;2022-09-09T10:14:58;11.65;;;4.28;;
17177;SDS011;8704;52.006;4.374;2022-09-09T10:17:36;14.32;;;5.05;;
17177;SDS011;8704;52.006;4.374;2022-09-09T10:20:15;10.00;;;4.68;;
17177;SDS011;8704;52.006;4.374;2022-09-09T10:22:56;12.35;;;4.88;;
17177;SDS011;8704;52.006;4.374;2022-09-09T10:25:37;11.02;;;4.18;;
17177;SDS011;8704;52.006;4.374;2022-09-09T10:28:26;10.32;;;4.93;;
17177;SDS011;8704;52.006;4.374;2022-09-09T10:31:08;8.73;;;3.97;;
17177;SDS011;8704;52.006;4.374;2022-09-09T10:33:48;8.60;;;3.45;;
17177;SDS011;8704;52.006;4.374;2022-09-09T10:36:19;10.77;;;4.07;;
17177;SDS011;8704;52.006;4.374;2022-09-09T10:38:52;9.43;;;4.32;;
17177;SDS011;8704;52.006;4.374;2022-09-09T10:41:30;12.45;;;3.92;;
17177;SDS011;8704;52.006;4.374;2022-09-09T10:44:26;9.40;;;4.20;;
17177;SDS011;8704;52.006;4.374;2022-09-09T10:47:26;8.73;;;4.95;;
17177;SDS011;8704;52.006;4.374;2022-09-09T10:50:14;11.57;;;4.95;;
17177;SDS011;8704;52.006;4.374;2022-09-09T10:53:14;11.68;;;5.50;;
17177;SDS011;8704;52.006;4.374;2022-09-09T10:55:51;11.70;;;5.40;;
17177;SDS011;8704;52.006;4.374;2022-09-09T10:58:25;13.38;;;5.22;;
17177;SDS011;8704;52.006;4.374;2022-09-09T11:00:59;10.85;;;4.93;;
17177;SDS011;8704;52.006;4.374;2022-09-09T11:03:35;9.80;;;4.90;;
17177;SDS011;8704;52.006;4.374;2022-09-09T11:06:09;11.32;;;4.40;;
17177;SDS011;8704;52.006;4.374;2022-09-09T11:08:44;11.85;;;4.40;;
17177;SDS011;8704;52.006;4.374;2022-09-09T11:11:13;8.40;;;3.92;;
17177;SDS011;8704;52.006;4.374;2022-09-09T11:13:48;9.35;;;4.75;;
17177;SDS011;8704;52.006;4.374;2022-09-09T11:16:24;9.35;;;4.57;;
17177;SDS011;8704;52.006;4.374;2022-09-09T11:18:57;8.25;;;3.72;;
17177;SDS011;8704;52.006;4.374;2022-09-09T11:21:29;9.20;;;3.95;;
17177;SDS011;8704;52.006;4.374;2022-09-09T11:24:20;7.85;;;4.13;;
17177;SDS011;8704;52.006;4.374;2022-09-09T11:26:51;8.03;;;4.07;;
17177;SDS011;8704;52.006;4.374;2022-09-09T11:29:36;10.18;;;4.55;;
17177;SDS011;8704;52.006;4.374;2022-09-09T11:32:27;10.65;;;4.93;;
17177;SDS011;8704;52.006;4.374;2022-09-09T11:35:26;7.53;;;4.43;;
17177;SDS011;8704;52.006;4.374;2022-09-09T11:38:08;9.52;;;4.95;;
17177;SDS011;8704;52.006;4.374;2022-09-09T11:40:45;12.10;;;5.15;;
17177;SDS011;8704;52.006;4.374;2022-09-09T11:43:15;9.70;;;4.93;;
17177;SDS011;8704;52.006;4.374;2022-09-09T11:45:50;7.07;;;4.65;;
17177;SDS011;8704;52.006;4.374;2022-09-09T11:48:27;7.93;;;4.55;;
17177;SDS011;8704;52.006;4.374;2022-09-09T11:51:02;6.75;;;3.17;;
17177;SDS011;8704;52.006;4.374;2022-09-09T11:53:47;7.10;;;3.78;;
17177;SDS011;8704;52.006;4.374;2022-09-09T11:56:23;11.48;;;4.40;;
17177;SDS011;8704;52.006;4.374;2022-09-09T11:58:56;7.90;;;4.43;;
17177;SDS011;8704;52.006;4.374;2022-09-09T12:01:36;6.33;;;4.27;;
17177;SDS011;8704;52.006;4.374;2022-09-09T12:04:12;9.90;;;4.13;;
17177;SDS011;8704;52.006;4.374;2022-09-09T12:06:50;11.00;;;4.57;;
17177;SDS011;8704;52.006;4.374;2022-09-09T12:09:22;8.15;;;4.07;;
17177;SDS011;8704;52.006;4.374;2022-09-09T12:12:04;7.93;;;4.63;;
17177;SDS011;8704;52.006;4.374;2022-09-09T12:14:35;8.77;;;4.13;;
17177;SDS011;8704;52.006;4.374;2022-09-09T12:20:06;8.43;;;4.05;;
17177;SDS011;8704;52.006;4.374;2022-09-09T12:22:59;9.88;;;4.00;;
17177;SDS011;8704;52.006;4.374;2022-09-09T12:25:48;7.20;;;4.00;;
17177;SDS011;8704;52.006;4.374;2022-09-09T12:28:38;6.55;;;3.53;;
17177;SDS011;8704;52.006;4.374;2022-09-09T12:31:10;7.90;;;3.53;;
17177;SDS011;8704;52.006;4.374;2022-09-09T12:33:45;6.47;;;3.25;;
17177;SDS011;8704;52.006;4.374;2022-09-09T12:36:15;10.27;;;3.33;;
17177;SDS011;8704;52.006;4.374;2022-09-09T12:38:47;8.80;;;3.03;;
17177;SDS011;8704;52.006;4.374;2022-09-09T12:41:20;7.82;;;2.85;;
17177;SDS011;8704;52.006;4.374;2022-09-09T12:43:49;8.57;;;3.10;;
17177;SDS011;8704;52.006;4.374;2022-09-09T12:46:21;6.80;;;2.60;;
17177;SDS011;8704;52.006;4.374;2022-09-09T12:48:58;3.97;;;2.20;;
17177;SDS011;8704;52.006;4.374;2022-09-09T12:51:26;4.93;;;2.28;;
17177;SDS011;8704;52.006;4.374;2022-09-09T12:53:57;5.00;;;2.20;;
17177;SDS011;8704;52.006;4.374;2022-09-09T12:56:27;5.72;;;2.35;;
17177;SDS011;8704;52.006;4.374;2022-09-09T12:58:58;5.65;;;2.65;;
17177;SDS011;8704;52.006;4.374;2022-09-09T13:01:27;4.60;;;1.88;;
17177;SDS011;8704;52.006;4.374;2022-09-09T13:03:57;5.32;;;2.22;;
17177;SDS011;8704;52.006;4.374;2022-09-09T13:06:26;3.28;;;1.58;;
17177;SDS011;8704;52.006;4.374;2022-09-09T13:08:55;7.20;;;2.03;;
17177;SDS011;8704;52.006;4.374;2022-09-09T13:11:27;3.83;;;1.55;;
17177;SDS011;8704;52.006;4.374;2022-09-09T13:13:59;5.97;;;2.00;;
17177;SDS011;8704;52.006;4.374;2022-09-09T13:16:28;4.72;;;1.95;;
17177;SDS011;8704;52.006;4.374;2022-09-09T13:18:59;4.82;;;1.88;;
17177;SDS011;8704;52.006;4.374;2022-09-09T13:21:32;5.25;;;1.90;;
17177;SDS011;8704;52.006;4.374;2022-09-09T13:24:03;6.82;;;2.35;;
17177;SDS011;8704;52.006;4.374;2022-09-09T13:26:34;6.00;;;1.92;;
17177;SDS011;8704;52.006;4.374;2022-09-09T13:29:15;6.85;;;2.22;;
17177;SDS011;8704;52.006;4.374;2022-09-09T13:31:47;10.50;;;2.40;;
17177;SDS011;8704;52.006;4.374;2022-09-09T13:34:28;3.90;;;1.40;;
17177;SDS011;8704;52.006;4.374;2022-09-09T13:36:59;4.15;;;1.40;;
17177;SDS011;8704;52.006;4.374;2022-09-09T13:39:30;2.70;;;0.93;;
17177;SDS011;8704;52.006;4.374;2022-09-09T13:42:01;3.38;;;1.13;;
17177;SDS011;8704;52.006;4.374;2022-09-09T13:44:30;2.42;;;1.02;;
17177;SDS011;8704;52.006;4.374;2022-09-09T13:47:04;4.50;;;1.00;;
17177;SDS011;8704;52.006;4.374;2022-09-09T13:49:36;4.70;;;1.13;;
17177;SDS011;8704;52.006;4.374;2022-09-09T13:52:05;4.90;;;1.20;;
17177;SDS011;8704;52.006;4.374;2022-09-09T13:54:38;5.68;;;1.52;;
17177;SDS011;8704;52.006;4.374;2022-09-09T13:57:13;7.35;;;1.85;;
17177;SDS011;8704;52.006;4.374;2022-09-09T13:59:44;3.85;;;1.60;;
17177;SDS011;8704;52.006;4.374;2022-09-09T14:02:30;6.53;;;1.92;;
17177;SDS011;8704;52.006;4.374;2022-09-09T14:04:58;4.82;;;2.13;;
17177;SDS011;8704;52.006;4.374;2022-09-09T14:07:26;6.53;;;2.40;;
17177;SDS011;8704;52.006;4.374;2022-09-09T14:09:56;7.22;;;2.38;;
17177;SDS011;8704;52.006;4.374;2022-09-09T14:12:26;5.93;;;2.37;;
17177;SDS011;8704;52.006;4.374;2022-09-09T14:14:54;5.93;;;2.35;;
17177;SDS011;8704;52.006;4.374;2022-09-09T14:17:22;6.07;;;2.20;;
17177;SDS011;8704;52.006;4.374;2022-09-09T14:19:51;8.13;;;2.67;;
17177;SDS011;8704;52.006;4.374;2022-09-09T14:22:19;9.90;;;2.67;;
17177;SDS011;8704;52.006;4.374;2022-09-09T14:24:47;6.00;;;2.55;;
17177;SDS011;8704;52.006;4.374;2022-09-09T14:27:17;8.23;;;2.42;;
17177;SDS011;8704;52.006;4.374;2022-09-09T14:29:45;7.60;;;2.30;;
17177;SDS011;8704;52.006;4.374;2022-09-09T14:32:13;6.78;;;2.28;;
17177;SDS011;8704;52.006;4.374;2022-09-09T14:34:41;9.20;;;2.20;;
17177;SDS011;8704;52.006;4.374;2022-09-09T14:37:10;5.53;;;1.60;;
17177;SDS011;8704;52.006;4.374;2022-09-09T14:39:38;4.85;;;1.60;;
17177;SDS011;8704;52.006;4.374;2022-09-09T14:42:06;8.07;;;1.73;;
17177;SDS011;8704;52.006;4.374;2022-09-09T14:44:36;9.10;;;2.03;;
17177;SDS011;8704;52.006;4.374;2022-09-09T14:47:04;6.05;;;1.80;;
17177;SDS011;8704;52.006;4.374;2022-09-09T14:49:34;6.70;;;2.05;;
17177;SDS011;8704;52.006;4.374;2022-09-09T14:52:05;6.60;;;1.40;;
17177;SDS011;8704;52.006;4.374;2022-09-09T14:54:35;10.38;;;1.88;;
17177;SDS011;8704;52.006;4.374;2022-09-09T14:57:03;4.57;;;1.67;;
17177;SDS011;8704;52.006;4.374;2022-09-09T14:59:31;5.05;;;1.50;;
17177;SDS011;8704;52.006;4.374;2022-09-09T15:02:01;6.10;;;1.60;;
17177;SDS011;8704;52.006;4.374;2022-09-09T15:04:31;7.82;;;1.67;;
17177;SDS011;8704;52.006;4.374;2022-09-09T15:06:59;6.65;;;1.88;;
17177;SDS011;8704;52.006;4.374;2022-09-09T15:09:27;10.25;;;1.88;;
17177;SDS011;8704;52.006;4.374;2022-09-09T15:11:55;7.18;;;1.67;;
17177;SDS011;8704;52.006;4.374;2022-09-09T15:14:25;6.30;;;1.92;;
17177;SDS011;8704;52.006;4.374;2022-09-09T15:16:54;6.90;;;1.52;;
17177;SDS011;8704;52.006;4.374;2022-09-09T15:19:23;6.70;;;1.60;;
17177;SDS011;8704;52.006;4.374;2022-09-09T15:21:51;6.38;;;1.73;;
17177;SDS011;8704;52.006;4.374;2022-09-09T15:24:19;4.43;;;1.60;;
17177;SDS011;8704;52.006;4.374;2022-09-09T15:26:47;8.27;;;1.73;;
17177;SDS011;8704;52.006;4.374;2022-09-09T15:29:16;7.13;;;1.80;;
17177;SDS011;8704;52.006;4.374;2022-09-09T15:31:45;10.48;;;2.22;;
17177;SDS011;8704;52.006;4.374;2022-09-09T15:34:13;5.32;;;1.80;;
17177;SDS011;8704;52.006;4.374;2022-09-09T15:36:43;13.43;;;3.72;;
17177;SDS011;8704;52.006;4.374;2022-09-09T15:39:12;11.63;;;3.80;;
17177;SDS011;8704;52.006;4.374;2022-09-09T15:41:42;7.20;;;2.97;;